sensor_id;sensor_type;location;lat;lon;timestamp;P1;durP1;ratioP1;P2;durP2;ratioP2
43560;SDS011;32305;46.410;17.394;2023-05-10T00:02:10;3.85;;;1.90;;
43560;SDS011;32305;46.410;17.394;2023-05-10T00:04:37;1.73;;;1.60;;
43560;SDS011;32305;46.410;17.394;2023-05-10T00:07:05;2.13;;;1.65;;
43560;SDS011;32305;46.410;17.394;2023-05-10T00:09:32;1.63;;;1.48;;
43560;SDS011;32305;46.410;17.394;2023-05-10T00:11:59;3.33;;;2.03;;
43560;SDS011;32305;46.410;17.394;2023-05-10T00:14:26;2.05;;;1.73;;
43560;SDS011;32305;46.410;17.394;2023-05-10T00:16:53;2.35;;;1.90;;
43560;SDS011;32305;46.410;17.394;2023-05-10T00:19:20;1.75;;;1.50;;
43560;SDS011;32305;46.410;17.394;2023-05-10T00:21:48;2.28;;;2.08;;
43560;SDS011;32305;46.410;17.394;2023-05-10T00:24:15;2.08;;;1.92;;
43560;SDS011;32305;46.410;17.394;2023-05-10T00:26:42;1.77;;;1.65;;
43560;SDS011;32305;46.410;17.394;2023-05-10T00:29:09;2.13;;;1.80;;
43560;SDS011;32305;46.410;17.394;2023-05-10T00:31:36;1.67;;;1.52;;
43560;SDS011;32305;46.410;17.394;2023-05-10T00:34:04;2.00;;;1.80;;
43560;SDS011;32305;46.410;17.394;2023-05-10T00:36:31;2.45;;;2.08;;
43560;SDS011;32305;46.410;17.394;2023-05-10T00:38:58;2.20;;;1.80;;
43560;SDS011;32305;46.410;17.394;2023-05-10T00:41:25;2.65;;;2.17;;
43560;SDS011;32305;46.410;17.394;2023-05-10T00:43:52;2.28;;;2.08;;
43560;SDS011;32305;46.410;17.394;2023-05-10T00:46:19;2.88;;;1.83;;
43560;SDS011;32305;46.410;17.394;2023-05-10T00:48:47;2.50;;;2.05;;
43560;SDS011;32305;46.410;17.394;2023-05-10T00:51:16;1.67;;;1.58;;
43560;SDS011;32305;46.410;17.394;2023-05-10T00:53:46;2.03;;;1.83;;
43560;SDS011;32305;46.410;17.394;2023-05-10T00:56:15;2.20;;;2.00;;
43560;SDS011;32305;46.410;17.394;2023-05-10T00:58:42;2.08;;;1.85;;
43560;SDS011;32305;46.410;17.394;2023-05-10T01:01:09;1.75;;;1.65;;
43560;SDS011;32305;46.410;17.394;2023-05-10T01:03:38;1.60;;;1.50;;
43560;SDS011;32305;46.410;17.394;2023-05-10T01:06:06;1.50;;;1.40;;
43560;SDS011;32305;46.410;17.394;2023-05-10T01:08:34;1.90;;;1.70;;
43560;SDS011;32305;46.410;17.394;2023-05-10T01:11:01;1.85;;;1.73;;
43560;SDS011;32305;46.410;17.394;2023-05-10T01:13:41;2.15;;;1.95;;
43560;SDS011;32305;46.410;17.394;2023-05-10T01:16:09;2.13;;;1.90;;
43560;SDS011;32305;46.410;17.394;2023-05-10T01:18:38;2.45;;;1.83;;
43560;SDS011;32305;46.410;17.394;2023-05-10T01:21:19;3.55;;;1.80;;
43560;SDS011;32305;46.410;17.394;2023-05-10T01:24:24;2.75;;;1.70;;
43560;SDS011;32305;46.410;17.394;2023-05-10T01:27:24;1.67;;;1.50;;
43560;SDS011;32305;46.410;17.394;2023-05-10T01:33:11;1.92;;;1.63;;
43560;SDS011;32305;46.410;17.394;2023-05-10T01:36:14;1.90;;;1.70;;
43560;SDS011;32305;46.410;17.394;2023-05-10T01:39:02;2.00;;;1.30;;
43560;SDS011;32305;46.410;17.394;2023-05-10T01:44:39;2.15;;;1.95;;
43560;SDS011;32305;46.410;17.394;2023-05-10T01:47:37;2.20;;;2.00;;
43560;SDS011;32305;46.410;17.394;2023-05-10T01:50:15;2.05;;;1.48;;
43560;SDS011;32305;46.410;17.394;2023-05-10T01:52:47;1.55;;;1.45;;
43560;SDS011;32305;46.410;17.394;2023-05-10T01:55:21;2.88;;;1.70;;
43560;SDS011;32305;46.410;17.394;2023-05-10T01:57:52;2.45;;;1.80;;
43560;SDS011;32305;46.410;17.394;2023-05-10T02:00:32;3.33;;;2.35;;
43560;SDS011;32305;46.410;17.394;2023-05-10T02:03:03;1.42;;;1.33;;
43560;SDS011;32305;46.410;17.394;2023-05-10T02:05:34;1.73;;;1.63;;
43560;SDS011;32305;46.410;17.394;2023-05-10T02:08:03;2.33;;;1.45;;
43560;SDS011;32305;46.410;17.394;2023-05-10T02:10:34;3.40;;;1.60;;
43560;SDS011;32305;46.410;17.394;2023-05-10T02:13:02;2.00;;;1.65;;
43560;SDS011;32305;46.410;17.394;2023-05-10T02:15:30;1.75;;;1.63;;
43560;SDS011;32305;46.410;17.394;2023-05-10T02:17:58;2.40;;;1.65;;
43560;SDS011;32305;46.410;17.394;2023-05-10T02:20:28;2.00;;;1.80;;
43560;SDS011;32305;46.410;17.394;2023-05-10T02:22:57;2.80;;;1.67;;
43560;SDS011;32305;46.410;17.394;2023-05-10T02:25:25;1.95;;;1.58;;
43560;SDS011;32305;46.410;17.394;2023-05-10T02:27:55;2.00;;;1.35;;
43560;SDS011;32305;46.410;17.394;2023-05-10T02:30:24;2.60;;;1.73;;
43560;SDS011;32305;46.410;17.394;2023-05-10T02:32:51;2.58;;;1.40;;
43560;SDS011;32305;46.410;17.394;2023-05-10T02:35:19;1.90;;;1.67;;
43560;SDS011;32305;46.410;17.394;2023-05-10T02:37:48;2.25;;;1.92;;
43560;SDS011;32305;46.410;17.394;2023-05-10T02:40:17;2.08;;;1.73;;
43560;SDS011;32305;46.410;17.394;2023-05-10T02:42:46;2.00;;;1.75;;
43560;SDS011;32305;46.410;17.394;2023-05-10T02:45:17;2.30;;;1.30;;
43560;SDS011;32305;46.410;17.394;2023-05-10T02:47:46;2.05;;;1.45;;
43560;SDS011;32305;46.410;17.394;2023-05-10T02:50:14;1.52;;;1.38;;
43560;SDS011;32305;46.410;17.394;2023-05-10T02:52:44;1.60;;;1.50;;
43560;SDS011;32305;46.410;17.394;2023-05-10T02:55:16;1.70;;;1.40;;
43560;SDS011;32305;46.410;17.394;2023-05-10T02:57:52;1.35;;;1.23;;
43560;SDS011;32305;46.410;17.394;2023-05-10T03:00:24;1.92;;;1.52;;
43560;SDS011;32305;46.410;17.394;2023-05-10T03:02:51;1.98;;;1.70;;
43560;SDS011;32305;46.410;17.394;2023-05-10T03:05:19;2.45;;;1.40;;
43560;SDS011;32305;46.410;17.394;2023-05-10T03:07:46;1.83;;;1.70;;
43560;SDS011;32305;46.410;17.394;2023-05-10T03:10:14;1.55;;;1.33;;
43560;SDS011;32305;46.410;17.394;2023-05-10T03:15:41;1.63;;;1.42;;
43560;SDS011;32305;46.410;17.394;2023-05-10T03:18:28;1.90;;;1.52;;
43560;SDS011;32305;46.410;17.394;2023-05-10T03:21:02;2.15;;;1.38;;
43560;SDS011;32305;46.410;17.394;2023-05-10T03:23:37;1.40;;;1.30;;
43560;SDS011;32305;46.410;17.394;2023-05-10T03:26:09;2.65;;;1.77;;
43560;SDS011;32305;46.410;17.394;2023-05-10T03:28:41;1.63;;;1.45;;
43560;SDS011;32305;46.410;17.394;2023-05-10T03:31:08;1.50;;;1.40;;
43560;SDS011;32305;46.410;17.394;2023-05-10T03:33:45;2.17;;;1.23;;
43560;SDS011;32305;46.410;17.394;2023-05-10T03:36:16;1.92;;;1.83;;
43560;SDS011;32305;46.410;17.394;2023-05-10T03:38:43;1.27;;;1.15;;
43560;SDS011;32305;46.410;17.394;2023-05-10T03:41:11;1.92;;;1.38;;
43560;SDS011;32305;46.410;17.394;2023-05-10T03:43:38;1.50;;;1.40;;
43560;SDS011;32305;46.410;17.394;2023-05-10T03:46:06;1.50;;;1.40;;
43560;SDS011;32305;46.410;17.394;2023-05-10T03:48:33;1.15;;;1.13;;
43560;SDS011;32305;46.410;17.394;2023-05-10T03:51:00;1.35;;;1.25;;
43560;SDS011;32305;46.410;17.394;2023-05-10T03:53:27;1.40;;;1.27;;
43560;SDS011;32305;46.410;17.394;2023-05-10T03:55:54;1.58;;;1.40;;
43560;SDS011;32305;46.410;17.394;2023-05-10T03:58:21;2.72;;;1.60;;
43560;SDS011;32305;46.410;17.394;2023-05-10T04:00:48;2.20;;;1.10;;
43560;SDS011;32305;46.410;17.394;2023-05-10T04:03:17;2.30;;;1.73;;
43560;SDS011;32305;46.410;17.394;2023-05-10T04:05:44;1.40;;;1.30;;
43560;SDS011;32305;46.410;17.394;2023-05-10T04:08:11;1.55;;;1.45;;
43560;SDS011;32305;46.410;17.394;2023-05-10T04:10:39;1.23;;;1.13;;
43560;SDS011;32305;46.410;17.394;2023-05-10T04:13:06;1.52;;;1.42;;
43560;SDS011;32305;46.410;17.394;2023-05-10T04:15:33;2.85;;;1.75;;
43560;SDS011;32305;46.410;17.394;2023-05-10T04:18:00;1.50;;;1.40;;
43560;SDS011;32305;46.410;17.394;2023-05-10T04:20:27;1.30;;;1.20;;
43560;SDS011;32305;46.410;17.394;2023-05-10T04:22:54;1.30;;;1.20;;
43560;SDS011;32305;46.410;17.394;2023-05-10T04:25:21;1.15;;;1.05;;
43560;SDS011;32305;46.410;17.394;2023-05-10T04:27:49;1.25;;;1.08;;
43560;SDS011;32305;46.410;17.394;2023-05-10T04:30:16;1.73;;;1.25;;
43560;SDS011;32305;46.410;17.394;2023-05-10T04:32:43;1.35;;;1.25;;
43560;SDS011;32305;46.410;17.394;2023-05-10T04:35:11;1.98;;;1.30;;
43560;SDS011;32305;46.410;17.394;2023-05-10T04:37:38;2.05;;;1.60;;
43560;SDS011;32305;46.410;17.394;2023-05-10T04:40:05;2.47;;;1.80;;
43560;SDS011;32305;46.410;17.394;2023-05-10T04:42:33;1.55;;;1.45;;
43560;SDS011;32305;46.410;17.394;2023-05-10T04:45:00;2.45;;;1.33;;
43560;SDS011;32305;46.410;17.394;2023-05-10T04:47:28;1.42;;;1.33;;
43560;SDS011;32305;46.410;17.394;2023-05-10T04:49:55;2.28;;;1.65;;
43560;SDS011;32305;46.410;17.394;2023-05-10T04:52:22;1.83;;;1.17;;
43560;SDS011;32305;46.410;17.394;2023-05-10T04:54:49;2.55;;;1.95;;
43560;SDS011;32305;46.410;17.394;2023-05-10T04:57:17;2.03;;;1.50;;
43560;SDS011;32305;46.410;17.394;2023-05-10T04:59:44;1.52;;;1.42;;
43560;SDS011;32305;46.410;17.394;2023-05-10T05:02:13;2.50;;;1.70;;
43560;SDS011;32305;46.410;17.394;2023-05-10T05:04:40;1.60;;;1.30;;
43560;SDS011;32305;46.410;17.394;2023-05-10T05:07:07;1.52;;;1.17;;
43560;SDS011;32305;46.410;17.394;2023-05-10T05:09:34;1.38;;;1.23;;
43560;SDS011;32305;46.410;17.394;2023-05-10T05:12:02;1.20;;;1.10;;
43560;SDS011;32305;46.410;17.394;2023-05-10T05:14:29;2.25;;;1.70;;
43560;SDS011;32305;46.410;17.394;2023-05-10T05:16:56;1.77;;;1.60;;
43560;SDS011;32305;46.410;17.394;2023-05-10T05:19:24;1.45;;;1.30;;
43560;SDS011;32305;46.410;17.394;2023-05-10T05:21:51;2.42;;;1.50;;
43560;SDS011;32305;46.410;17.394;2023-05-10T05:24:18;1.60;;;1.35;;
43560;SDS011;32305;46.410;17.394;2023-05-10T05:26:46;1.48;;;1.38;;
43560;SDS011;32305;46.410;17.394;2023-05-10T05:29:13;1.67;;;1.55;;
43560;SDS011;32305;46.410;17.394;2023-05-10T05:31:40;3.95;;;1.38;;
43560;SDS011;32305;46.410;17.394;2023-05-10T05:34:08;1.85;;;1.23;;
43560;SDS011;32305;46.410;17.394;2023-05-10T05:36:36;1.67;;;1.40;;
43560;SDS011;32305;46.410;17.394;2023-05-10T05:39:06;1.92;;;1.63;;
43560;SDS011;32305;46.410;17.394;2023-05-10T05:41:34;1.50;;;1.35;;
43560;SDS011;32305;46.410;17.394;2023-05-10T05:44:01;1.92;;;1.60;;
43560;SDS011;32305;46.410;17.394;2023-05-10T05:46:28;2.47;;;1.98;;
43560;SDS011;32305;46.410;17.394;2023-05-10T05:48:56;3.15;;;1.63;;
43560;SDS011;32305;46.410;17.394;2023-05-10T05:51:23;1.80;;;1.65;;
43560;SDS011;32305;46.410;17.394;2023-05-10T05:53:50;1.67;;;1.50;;
43560;SDS011;32305;46.410;17.394;2023-05-10T05:56:17;1.17;;;1.10;;
43560;SDS011;32305;46.410;17.394;2023-05-10T05:58:51;1.77;;;1.65;;
43560;SDS011;32305;46.410;17.394;2023-05-10T06:01:18;1.88;;;1.70;;
43560;SDS011;32305;46.410;17.394;2023-05-10T06:03:45;1.88;;;1.48;;
43560;SDS011;32305;46.410;17.394;2023-05-10T06:06:14;3.17;;;1.50;;
43560;SDS011;32305;46.410;17.394;2023-05-10T06:08:41;4.70;;;1.30;;
43560;SDS011;32305;46.410;17.394;2023-05-10T06:11:09;1.70;;;1.60;;
43560;SDS011;32305;46.410;17.394;2023-05-10T06:13:36;5.03;;;1.40;;
43560;SDS011;32305;46.410;17.394;2023-05-10T06:16:03;2.85;;;2.25;;
43560;SDS011;32305;46.410;17.394;2023-05-10T06:18:32;2.05;;;1.70;;
43560;SDS011;32305;46.410;17.394;2023-05-10T06:20:59;1.45;;;1.33;;
43560;SDS011;32305;46.410;17.394;2023-05-10T06:23:26;1.92;;;1.25;;
43560;SDS011;32305;46.410;17.394;2023-05-10T06:25:53;3.22;;;1.45;;
43560;SDS011;32305;46.410;17.394;2023-05-10T06:28:21;4.95;;;1.65;;
43560;SDS011;32305;46.410;17.394;2023-05-10T06:30:48;9.40;;;2.65;;
43560;SDS011;32305;46.410;17.394;2023-05-10T06:33:15;10.98;;;2.35;;
43560;SDS011;32305;46.410;17.394;2023-05-10T06:35:43;7.68;;;2.90;;
43560;SDS011;32305;46.410;17.394;2023-05-10T06:38:10;3.42;;;2.15;;
43560;SDS011;32305;46.410;17.394;2023-05-10T06:40:40;3.80;;;1.90;;
43560;SDS011;32305;46.410;17.394;2023-05-10T06:43:08;5.13;;;2.35;;
43560;SDS011;32305;46.410;17.394;2023-05-10T06:45:37;3.53;;;2.35;;
43560;SDS011;32305;46.410;17.394;2023-05-10T06:48:04;7.15;;;2.72;;
43560;SDS011;32305;46.410;17.394;2023-05-10T06:50:31;11.70;;;3.03;;
43560;SDS011;32305;46.410;17.394;2023-05-10T06:52:59;7.03;;;2.67;;
43560;SDS011;32305;46.410;17.394;2023-05-10T06:55:28;8.45;;;2.92;;
43560;SDS011;32305;46.410;17.394;2023-05-10T06:57:56;8.10;;;2.92;;
43560;SDS011;32305;46.410;17.394;2023-05-10T07:00:23;9.02;;;2.70;;
43560;SDS011;32305;46.410;17.394;2023-05-10T07:02:51;5.10;;;2.63;;
43560;SDS011;32305;46.410;17.394;2023-05-10T07:05:18;7.13;;;2.58;;
43560;SDS011;32305;46.410;17.394;2023-05-10T07:07:46;3.55;;;2.35;;
43560;SDS011;32305;46.410;17.394;2023-05-10T07:10:14;3.25;;;1.90;;
43560;SDS011;32305;46.410;17.394;2023-05-10T07:12:41;4.35;;;2.40;;
43560;SDS011;32305;46.410;17.394;2023-05-10T07:15:09;3.03;;;2.25;;
43560;SDS011;32305;46.410;17.394;2023-05-10T07:17:36;3.70;;;2.03;;
43560;SDS011;32305;46.410;17.394;2023-05-10T07:20:03;4.82;;;2.05;;
43560;SDS011;32305;46.410;17.394;2023-05-10T07:22:31;7.55;;;2.08;;
43560;SDS011;32305;46.410;17.394;2023-05-10T07:24:59;3.38;;;1.70;;
43560;SDS011;32305;46.410;17.394;2023-05-10T07:27:26;3.47;;;1.73;;
43560;SDS011;32305;46.410;17.394;2023-05-10T07:29:53;2.60;;;1.67;;
43560;SDS011;32305;46.410;17.394;2023-05-10T07:32:21;4.88;;;2.13;;
43560;SDS011;32305;46.410;17.394;2023-05-10T07:34:49;3.83;;;1.48;;
43560;SDS011;32305;46.410;17.394;2023-05-10T07:37:16;2.60;;;1.65;;
43560;SDS011;32305;46.410;17.394;2023-05-10T07:39:43;1.52;;;1.40;;
43560;SDS011;32305;46.410;17.394;2023-05-10T07:42:10;2.45;;;1.92;;
43560;SDS011;32305;46.410;17.394;2023-05-10T07:44:38;1.70;;;1.60;;
43560;SDS011;32305;46.410;17.394;2023-05-10T07:47:05;4.10;;;1.52;;
43560;SDS011;32305;46.410;17.394;2023-05-10T07:49:32;1.73;;;1.48;;
43560;SDS011;32305;46.410;17.394;2023-05-10T07:51:59;3.20;;;1.80;;
43560;SDS011;32305;46.410;17.394;2023-05-10T07:54:27;2.45;;;1.60;;
43560;SDS011;32305;46.410;17.394;2023-05-10T07:56:54;2.95;;;1.65;;
43560;SDS011;32305;46.410;17.394;2023-05-10T07:59:21;1.52;;;1.42;;
43560;SDS011;32305;46.410;17.394;2023-05-10T08:01:49;3.45;;;1.23;;
43560;SDS011;32305;46.410;17.394;2023-05-10T08:04:16;1.92;;;1.73;;
43560;SDS011;32305;46.410;17.394;2023-05-10T08:06:43;2.90;;;1.58;;
43560;SDS011;32305;46.410;17.394;2023-05-10T08:09:10;6.13;;;1.95;;
43560;SDS011;32305;46.410;17.394;2023-05-10T08:11:39;9.10;;;1.58;;
43560;SDS011;32305;46.410;17.394;2023-05-10T08:14:06;3.03;;;1.45;;
43560;SDS011;32305;46.410;17.394;2023-05-10T08:16:33;2.80;;;1.42;;
43560;SDS011;32305;46.410;17.394;2023-05-10T08:19:00;2.35;;;1.05;;
43560;SDS011;32305;46.410;17.394;2023-05-10T08:21:28;2.42;;;2.08;;
43560;SDS011;32305;46.410;17.394;2023-05-10T08:23:56;6.75;;;1.77;;
43560;SDS011;32305;46.410;17.394;2023-05-10T08:26:24;1.50;;;1.40;;
43560;SDS011;32305;46.410;17.394;2023-05-10T08:28:51;1.65;;;1.52;;
43560;SDS011;32305;46.410;17.394;2023-05-10T08:31:18;1.88;;;1.42;;
43560;SDS011;32305;46.410;17.394;2023-05-10T08:33:45;3.15;;;1.40;;
43560;SDS011;32305;46.410;17.394;2023-05-10T08:36:13;1.33;;;1.10;;
43560;SDS011;32305;46.410;17.394;2023-05-10T08:38:46;1.10;;;1.10;;
43560;SDS011;32305;46.410;17.394;2023-05-10T08:41:15;2.00;;;1.50;;
43560;SDS011;32305;46.410;17.394;2023-05-10T08:43:43;2.50;;;1.35;;
43560;SDS011;32305;46.410;17.394;2023-05-10T08:46:16;3.70;;;1.27;;
43560;SDS011;32305;46.410;17.394;2023-05-10T08:48:45;3.75;;;1.88;;
43560;SDS011;32305;46.410;17.394;2023-05-10T08:51:14;3.78;;;1.73;;
43560;SDS011;32305;46.410;17.394;2023-05-10T08:53:45;1.92;;;1.33;;
43560;SDS011;32305;46.410;17.394;2023-05-10T08:56:12;3.15;;;1.40;;
43560;SDS011;32305;46.410;17.394;2023-05-10T08:58:41;1.43;;;1.20;;
43560;SDS011;32305;46.410;17.394;2023-05-10T09:01:09;1.77;;;1.20;;
43560;SDS011;32305;46.410;17.394;2023-05-10T09:03:38;2.45;;;1.40;;
43560;SDS011;32305;46.410;17.394;2023-05-10T09:06:05;1.30;;;1.17;;
43560;SDS011;32305;46.410;17.394;2023-05-10T09:08:33;2.50;;;1.50;;
43560;SDS011;32305;46.410;17.394;2023-05-10T09:11:00;3.58;;;1.42;;
43560;SDS011;32305;46.410;17.394;2023-05-10T09:13:28;1.48;;;1.38;;
43560;SDS011;32305;46.410;17.394;2023-05-10T09:15:56;1.40;;;1.25;;
43560;SDS011;32305;46.410;17.394;2023-05-10T09:18:32;3.63;;;2.05;;
43560;SDS011;32305;46.410;17.394;2023-05-10T09:20:59;2.00;;;1.50;;
43560;SDS011;32305;46.410;17.394;2023-05-10T09:23:26;2.78;;;1.58;;
43560;SDS011;32305;46.410;17.394;2023-05-10T09:26:02;1.63;;;1.50;;
43560;SDS011;32305;46.410;17.394;2023-05-10T09:28:31;4.90;;;1.67;;
43560;SDS011;32305;46.410;17.394;2023-05-10T09:31:16;1.73;;;1.10;;
43560;SDS011;32305;46.410;17.394;2023-05-10T09:33:44;1.60;;;1.50;;
43560;SDS011;32305;46.410;17.394;2023-05-10T09:36:13;2.45;;;1.33;;
43560;SDS011;32305;46.410;17.394;2023-05-10T09:38:48;2.45;;;1.58;;
43560;SDS011;32305;46.410;17.394;2023-05-10T09:41:18;1.88;;;1.48;;
43560;SDS011;32305;46.410;17.394;2023-05-10T09:43:47;1.58;;;1.40;;
43560;SDS011;32305;46.410;17.394;2023-05-10T09:46:16;1.42;;;1.27;;
43560;SDS011;32305;46.410;17.394;2023-05-10T09:48:44;1.48;;;1.38;;
43560;SDS011;32305;46.410;17.394;2023-05-10T09:51:23;1.83;;;1.73;;
43560;SDS011;32305;46.410;17.394;2023-05-10T09:54:09;1.88;;;1.77;;
43560;SDS011;32305;46.410;17.394;2023-05-10T09:56:42;1.70;;;1.60;;
43560;SDS011;32305;46.410;17.394;2023-05-10T09:59:11;1.60;;;1.50;;
43560;SDS011;32305;46.410;17.394;2023-05-10T10:01:39;4.97;;;2.13;;
43560;SDS011;32305;46.410;17.394;2023-05-10T10:04:08;1.60;;;1.50;;
43560;SDS011;32305;46.410;17.394;2023-05-10T10:06:37;1.67;;;1.55;;
43560;SDS011;32305;46.410;17.394;2023-05-10T10:09:05;1.83;;;1.73;;
43560;SDS011;32305;46.410;17.394;2023-05-10T10:11:37;2.08;;;1.88;;
43560;SDS011;32305;46.410;17.394;2023-05-10T10:14:05;2.08;;;1.90;;
43560;SDS011;32305;46.410;17.394;2023-05-10T10:16:32;1.83;;;1.73;;
43560;SDS011;32305;46.410;17.394;2023-05-10T10:19:00;2.47;;;2.28;;
43560;SDS011;32305;46.410;17.394;2023-05-10T10:21:27;2.05;;;1.95;;
43560;SDS011;32305;46.410;17.394;2023-05-10T10:23:55;4.10;;;2.03;;
43560;SDS011;32305;46.410;17.394;2023-05-10T10:26:22;2.45;;;1.80;;
43560;SDS011;32305;46.410;17.394;2023-05-10T10:29:00;2.58;;;2.00;;
43560;SDS011;32305;46.410;17.394;2023-05-10T10:34:51;12.10;;;2.03;;
43560;SDS011;32305;46.410;17.394;2023-05-10T10:37:18;2.20;;;2.00;;
43560;SDS011;32305;46.410;17.394;2023-05-10T10:39:48;7.55;;;2.53;;
43560;SDS011;32305;46.410;17.394;2023-05-10T10:42:43;1.90;;;1.80;;
43560;SDS011;32305;46.410;17.394;2023-05-10T10:45:13;3.60;;;2.40;;
43560;SDS011;32305;46.410;17.394;2023-05-10T10:47:41;5.00;;;2.45;;
43560;SDS011;32305;46.410;17.394;2023-05-10T10:50:10;4.93;;;2.33;;
43560;SDS011;32305;46.410;17.394;2023-05-10T10:52:40;2.33;;;2.13;;
43560;SDS011;32305;46.410;17.394;2023-05-10T10:55:15;2.17;;;2.03;;
43560;SDS011;32305;46.410;17.394;2023-05-10T10:57:47;2.67;;;2.47;;
43560;SDS011;32305;46.410;17.394;2023-05-10T11:00:20;2.38;;;2.00;;
43560;SDS011;32305;46.410;17.394;2023-05-10T11:03:13;2.55;;;2.10;;
43560;SDS011;32305;46.410;17.394;2023-05-10T11:05:42;5.97;;;2.30;;
43560;SDS011;32305;46.410;17.394;2023-05-10T11:08:11;3.78;;;2.15;;
43560;SDS011;32305;46.410;17.394;2023-05-10T11:10:51;2.25;;;2.00;;
43560;SDS011;32305;46.410;17.394;2023-05-10T11:13:43;2.47;;;2.28;;
43560;SDS011;32305;46.410;17.394;2023-05-10T11:16:16;9.37;;;2.43;;
43560;SDS011;32305;46.410;17.394;2023-05-10T11:19:01;3.42;;;2.85;;
43560;SDS011;32305;46.410;17.394;2023-05-10T11:21:32;1.92;;;1.83;;
43560;SDS011;32305;46.410;17.394;2023-05-10T11:24:01;2.65;;;2.05;;
43560;SDS011;32305;46.410;17.394;2023-05-10T11:26:33;3.13;;;1.67;;
43560;SDS011;32305;46.410;17.394;2023-05-10T11:29:02;6.80;;;2.75;;
43560;SDS011;32305;46.410;17.394;2023-05-10T11:31:31;2.45;;;2.05;;
43560;SDS011;32305;46.410;17.394;2023-05-10T11:33:59;2.47;;;2.28;;
43560;SDS011;32305;46.410;17.394;2023-05-10T11:36:34;4.45;;;2.08;;
43560;SDS011;32305;46.410;17.394;2023-05-10T11:39:02;2.25;;;2.15;;
43560;SDS011;32305;46.410;17.394;2023-05-10T11:41:31;6.82;;;2.25;;
43560;SDS011;32305;46.410;17.394;2023-05-10T11:43:58;3.50;;;2.10;;
43560;SDS011;32305;46.410;17.394;2023-05-10T11:46:26;2.90;;;1.98;;
43560;SDS011;32305;46.410;17.394;2023-05-10T11:48:58;3.95;;;1.95;;
43560;SDS011;32305;46.410;17.394;2023-05-10T11:51:28;4.88;;;1.95;;
43560;SDS011;32305;46.410;17.394;2023-05-10T11:53:56;3.28;;;1.92;;
43560;SDS011;32305;46.410;17.394;2023-05-10T11:56:23;2.47;;;1.92;;
43560;SDS011;32305;46.410;17.394;2023-05-10T11:58:53;2.30;;;1.60;;
43560;SDS011;32305;46.410;17.394;2023-05-10T12:01:24;2.35;;;2.15;;
43560;SDS011;32305;46.410;17.394;2023-05-10T12:03:53;3.45;;;2.10;;
43560;SDS011;32305;46.410;17.394;2023-05-10T12:06:29;2.85;;;1.90;;
43560;SDS011;32305;46.410;17.394;2023-05-10T12:08:59;2.08;;;1.83;;
43560;SDS011;32305;46.410;17.394;2023-05-10T12:11:35;1.70;;;1.60;;
43560;SDS011;32305;46.410;17.394;2023-05-10T12:14:07;2.17;;;1.98;;
43560;SDS011;32305;46.410;17.394;2023-05-10T12:16:35;2.85;;;2.28;;
43560;SDS011;32305;46.410;17.394;2023-05-10T12:19:02;2.45;;;1.90;;
43560;SDS011;32305;46.410;17.394;2023-05-10T12:21:30;3.13;;;1.70;;
43560;SDS011;32305;46.410;17.394;2023-05-10T12:24:03;2.30;;;2.10;;
43560;SDS011;32305;46.410;17.394;2023-05-10T12:26:34;2.15;;;2.00;;
43560;SDS011;32305;46.410;17.394;2023-05-10T12:29:16;3.47;;;2.13;;
43560;SDS011;32305;46.410;17.394;2023-05-10T12:31:52;2.97;;;1.92;;
43560;SDS011;32305;46.410;17.394;2023-05-10T12:34:32;3.72;;;2.42;;
43560;SDS011;32305;46.410;17.394;2023-05-10T12:37:01;2.63;;;1.75;;
43560;SDS011;32305;46.410;17.394;2023-05-10T12:39:39;1.98;;;1.77;;
43560;SDS011;32305;46.410;17.394;2023-05-10T12:42:08;3.65;;;2.10;;
43560;SDS011;32305;46.410;17.394;2023-05-10T12:44:35;2.22;;;1.60;;
43560;SDS011;32305;46.410;17.394;2023-05-10T12:47:03;1.60;;;1.50;;
43560;SDS011;32305;46.410;17.394;2023-05-10T12:49:30;4.20;;;2.33;;
43560;SDS011;32305;46.410;17.394;2023-05-10T12:51:57;4.60;;;2.33;;
43560;SDS011;32305;46.410;17.394;2023-05-10T12:54:28;2.95;;;2.00;;
43560;SDS011;32305;46.410;17.394;2023-05-10T12:56:55;8.90;;;1.70;;
43560;SDS011;32305;46.410;17.394;2023-05-10T12:59:22;7.07;;;3.05;;
43560;SDS011;32305;46.410;17.394;2023-05-10T13:01:49;11.02;;;3.45;;
43560;SDS011;32305;46.410;17.394;2023-05-10T13:04:17;25.40;;;3.55;;
43560;SDS011;32305;46.410;17.394;2023-05-10T13:06:44;6.47;;;2.45;;
43560;SDS011;32305;46.410;17.394;2023-05-10T13:09:13;11.38;;;3.33;;
43560;SDS011;32305;46.410;17.394;2023-05-10T13:11:40;20.98;;;3.28;;
43560;SDS011;32305;46.410;17.394;2023-05-10T13:14:07;10.68;;;3.22;;
43560;SDS011;32305;46.410;17.394;2023-05-10T13:16:34;7.38;;;3.50;;
43560;SDS011;32305;46.410;17.394;2023-05-10T13:19:03;8.23;;;3.13;;
43560;SDS011;32305;46.410;17.394;2023-05-10T13:21:30;10.73;;;3.00;;
43560;SDS011;32305;46.410;17.394;2023-05-10T13:23:57;10.57;;;2.85;;
43560;SDS011;32305;46.410;17.394;2023-05-10T13:26:24;14.82;;;2.60;;
43560;SDS011;32305;46.410;17.394;2023-05-10T13:28:51;14.90;;;3.15;;
43560;SDS011;32305;46.410;17.394;2023-05-10T13:31:19;8.32;;;2.95;;
43560;SDS011;32305;46.410;17.394;2023-05-10T13:33:47;10.55;;;3.22;;
43560;SDS011;32305;46.410;17.394;2023-05-10T13:36:14;7.95;;;2.97;;
43560;SDS011;32305;46.410;17.394;2023-05-10T13:38:41;5.82;;;2.53;;
43560;SDS011;32305;46.410;17.394;2023-05-10T13:41:08;10.00;;;2.78;;
43560;SDS011;32305;46.410;17.394;2023-05-10T13:43:37;8.45;;;2.58;;
43560;SDS011;32305;46.410;17.394;2023-05-10T13:46:04;8.23;;;3.10;;
43560;SDS011;32305;46.410;17.394;2023-05-10T13:48:32;3.78;;;2.65;;
43560;SDS011;32305;46.410;17.394;2023-05-10T13:51:00;7.32;;;2.50;;
43560;SDS011;32305;46.410;17.394;2023-05-10T13:53:27;4.38;;;2.58;;
43560;SDS011;32305;46.410;17.394;2023-05-10T13:55:54;7.30;;;2.40;;
43560;SDS011;32305;46.410;17.394;2023-05-10T13:58:22;5.75;;;2.20;;
43560;SDS011;32305;46.410;17.394;2023-05-10T14:00:49;4.05;;;2.42;;
43560;SDS011;32305;46.410;17.394;2023-05-10T14:03:17;4.78;;;2.20;;
43560;SDS011;32305;46.410;17.394;2023-05-10T14:05:44;5.32;;;2.33;;
43560;SDS011;32305;46.410;17.394;2023-05-10T14:08:12;12.23;;;2.65;;
43560;SDS011;32305;46.410;17.394;2023-05-10T14:10:39;4.25;;;2.33;;
43560;SDS011;32305;46.410;17.394;2023-05-10T14:13:06;8.07;;;2.00;;
43560;SDS011;32305;46.410;17.394;2023-05-10T14:15:34;13.55;;;2.33;;
43560;SDS011;32305;46.410;17.394;2023-05-10T14:18:01;5.07;;;2.20;;
43560;SDS011;32305;46.410;17.394;2023-05-10T14:20:29;5.78;;;2.35;;
43560;SDS011;32305;46.410;17.394;2023-05-10T14:22:58;7.13;;;2.90;;
43560;SDS011;32305;46.410;17.394;2023-05-10T14:25:26;6.78;;;2.45;;
43560;SDS011;32305;46.410;17.394;2023-05-10T14:27:53;5.07;;;2.42;;
43560;SDS011;32305;46.410;17.394;2023-05-10T14:30:21;5.45;;;2.72;;
43560;SDS011;32305;46.410;17.394;2023-05-10T14:32:48;8.02;;;2.40;;
43560;SDS011;32305;46.410;17.394;2023-05-10T14:35:16;10.50;;;2.25;;
43560;SDS011;32305;46.410;17.394;2023-05-10T14:37:45;4.88;;;2.78;;
43560;SDS011;32305;46.410;17.394;2023-05-10T14:40:12;6.60;;;2.65;;
43560;SDS011;32305;46.410;17.394;2023-05-10T14:42:41;5.70;;;2.78;;
43560;SDS011;32305;46.410;17.394;2023-05-10T14:45:09;3.28;;;2.15;;
43560;SDS011;32305;46.410;17.394;2023-05-10T14:47:37;5.20;;;2.38;;
43560;SDS011;32305;46.410;17.394;2023-05-10T14:50:04;6.15;;;2.53;;
43560;SDS011;32305;46.410;17.394;2023-05-10T14:52:32;5.40;;;2.15;;
43560;SDS011;32305;46.410;17.394;2023-05-10T14:54:59;4.22;;;2.53;;
43560;SDS011;32305;46.410;17.394;2023-05-10T14:57:27;9.63;;;2.83;;
43560;SDS011;32305;46.410;17.394;2023-05-10T14:59:56;12.77;;;2.63;;